| time (UTC) | temp F | wind direction | speed MPH | gust MPH | rain 1hr in | rain 24hr in | rain mn in | humidity % | barometer mb |
| 20260506234434 | 77 | 158 | 2.0 | 8.0 | 0.00 | 0.00 | 0.00 | 36 | 1011.2 |
| 20260506232935 | 77 | 217 | 1.0 | 7.0 | 0.00 | 0.00 | 0.00 | 36 | 1011.3 |
| 20260506231436 | 77 | 339 | 3.0 | 8.0 | 0.00 | 0.00 | 0.00 | 33 | 1011.3 |
| 20260506225935 | 78 | 285 | 3.0 | 14.0 | 0.00 | 0.00 | 0.00 | 33 | 1011.4 |
| 20260506224435 | 78 | 262 | 3.0 | 6.0 | 0.00 | 0.00 | 0.00 | 34 | 1011.5 |
| 20260506222935 | 79 | 270 | 1.0 | 5.0 | 0.00 | 0.00 | 0.00 | 36 | 1011.6 |
| 20260506221437 | 79 | 208 | 2.0 | 8.0 | 0.00 | 0.00 | 0.00 | 36 | 1011.7 |
| 20260506215936 | 79 | 300 | 2.0 | 11.0 | 0.00 | 0.00 | 0.00 | 37 | 1011.7 |
| 20260506214435 | 79 | 199 | 2.0 | 10.0 | 0.00 | 0.00 | 0.00 | 37 | 1012.1 |
| 20260506212935 | 78 | 339 | 3.0 | 7.0 | 0.00 | 0.00 | 0.00 | 37 | 1012.1 |
| 20260506211435 | 78 | 169 | 2.0 | 6.0 | 0.00 | 0.00 | 0.00 | 39 | 1012.2 |
| 20260506205936 | 78 | 250 | 1.0 | 7.0 | 0.00 | 0.00 | 0.00 | 39 | 1012.5 |
| 20260506204437 | 77 | 270 | 3.0 | 11.0 | 0.00 | 0.00 | 0.00 | 39 | 1012.7 |
| 20260506202935 | 77 | 204 | 1.0 | 9.0 | 0.00 | 0.00 | 0.00 | 41 | 1012.7 |
| 20260506201435 | 76 | 185 | 3.0 | 13.0 | 0.00 | 0.00 | 0.00 | 42 | 1012.8 |
| 20260506195938 | 75 | 177 | 5.0 | 12.0 | 0.00 | 0.00 | 0.00 | 41 | 1012.8 |
| 20260506194437 | 75 | 271 | 3.0 | 9.0 | 0.00 | 0.00 | 0.00 | 45 | 1012.9 |
| 20260506192935 | 75 | 178 | 5.0 | 11.0 | 0.00 | 0.00 | 0.00 | 43 | 1013.3 |
| 20260506191436 | 74 | 136 | 2.0 | 9.0 | 0.00 | 0.00 | 0.00 | 43 | 1013.4 |
| 20260506185935 | 73 | 252 | 2.0 | 13.0 | 0.00 | 0.00 | 0.00 | 43 | 1013.8 |
| 20260506184435 | 73 | 184 | 6.0 | 11.0 | 0.00 | 0.00 | 0.00 | 44 | 1013.6 |
| 20260506182935 | 73 | 157 | 7.0 | 10.0 | 0.00 | 0.00 | 0.00 | 44 | 1013.5 |
| 20260506181435 | 72 | 250 | 2.0 | 12.0 | 0.00 | 0.00 | 0.00 | 46 | 1013.5 |
| 20260506175936 | 71 | 178 | 4.0 | 14.0 | 0.00 | 0.00 | 0.00 | 47 | 1013.6 |
| 20260506174435 | 72 | 166 | 2.0 | 5.0 | 0.00 | 0.00 | 0.00 | 45 | 1013.7 |
| 20260506172935 | 71 | 294 | 0.0 | 8.0 | 0.00 | 0.00 | 0.00 | 47 | 1013.8 |
| 20260506171435 | 70 | 160 | 1.0 | 7.0 | 0.00 | 0.00 | 0.00 | 48 | 1013.9 |
| 20260506165936 | 69 | 240 | 2.0 | 4.0 | 0.00 | 0.00 | 0.00 | 45 | 1014.1 |
| 20260506164435 | 67 | 173 | 3.0 | 8.0 | 0.00 | 0.00 | 0.00 | 45 | 1014.3 |
| 20260506162938 | 66 | 124 | 1.0 | 4.0 | 0.00 | 0.00 | 0.00 | 47 | 1014.4 |
| 20260506161435 | 63 | 40 | 1.0 | 5.0 | 0.00 | 0.00 | 0.00 | 47 | 1014.3 |
| 20260506155935 | 61 | 93 | 2.0 | 5.0 | 0.00 | 0.00 | 0.00 | 48 | 1014.4 |
| 20260506154434 | 60 | 50 | 2.0 | 4.0 | 0.00 | 0.00 | 0.00 | 49 | 1014.4 |
| 20260506152937 | 59 | 137 | 1.0 | 4.0 | 0.00 | 0.00 | 0.00 | 51 | 1014.3 |
| 20260506151437 | 59 | 349 | 1.0 | 2.0 | 0.00 | 0.00 | 0.00 | 49 | 1014.6 |
| 20260506145934 | 58 | 105 | 1.0 | 2.0 | 0.00 | 0.00 | 0.00 | 52 | 1014.6 |
| 20260506144435 | 57 | 164 | 0.0 | 2.0 | 0.00 | 0.00 | 0.00 | 56 | 1014.5 |
| 20260506142934 | 56 | 118 | 1.0 | 1.0 | 0.00 | 0.00 | 0.00 | 57 | 1014.6 |
| 20260506141434 | 53 | 205 | 0.0 | 1.0 | 0.00 | 0.00 | 0.00 | 64 | 1014.5 |
| 20260506135938 | 51 | 203 | 0.0 | 1.0 | 0.00 | 0.00 | 0.00 | 68 | 1014.7 |
| 20260506134437 | 48 | 108 | 0.0 | 1.0 | 0.00 | 0.00 | 0.00 | 73 | 1014.5 |
| 20260506132936 | 44 | 262 | 0.0 | 1.0 | 0.00 | 0.00 | 0.00 | 81 | 1014.4 |
| 20260506131436 | 43 | 119 | 0.0 | 1.0 | 0.00 | 0.00 | 0.00 | 82 | 1014.3 |
| 20260506125939 | 43 | 162 | 0.0 | 1.0 | 0.00 | 0.00 | 0.00 | 82 | 1014.2 |
| 20260506124439 | 42 | 238 | 0.0 | 1.0 | 0.00 | 0.00 | 0.00 | 82 | 1014.1 |
| 20260506122938 | 42 | 151 | 0.0 | 0.0 | 0.00 | 0.00 | 0.00 | 82 | 1014.0 |
| 20260506121435 | 43 | 150 | 0.0 | 1.0 | 0.00 | 0.00 | 0.00 | 81 | 1013.9 |
| 20260506115938 | 43 | 143 | 0.0 | 1.0 | 0.00 | 0.00 | 0.00 | 80 | 1013.8 |
| 20260506114437 | 43 | 191 | 0.0 | 1.0 | 0.00 | 0.00 | 0.00 | 79 | 1013.6 |
| 20260506112938 | 43 | 101 | 0.0 | 1.0 | 0.00 | 0.00 | 0.00 | 80 | 1013.7 |
| 20260506111438 | 44 | 162 | 0.0 | 2.0 | 0.00 | 0.00 | 0.00 | 79 | 1013.7 |
| 20260506105937 | 44 | 136 | 0.0 | 1.0 | 0.00 | 0.00 | 0.00 | 78 | 1013.7 |
| 20260506104437 | 45 | 113 | 0.0 | 1.0 | 0.00 | 0.00 | 0.00 | 78 | 1013.8 |
| 20260506102938 | 45 | 155 | 0.0 | 1.0 | 0.00 | 0.00 | 0.00 | 76 | 1013.7 |
| 20260506101438 | 45 | 124 | 0.0 | 2.0 | 0.00 | 0.00 | 0.00 | 78 | 1013.6 |
| 20260506095939 | 45 | 123 | 0.0 | 1.0 | 0.00 | 0.00 | 0.00 | 79 | 1013.7 |
| 20260506094438 | 45 | 136 | 0.0 | 1.0 | 0.00 | 0.00 | 0.00 | 79 | 1013.7 |
| 20260506092939 | 45 | 165 | 0.0 | 1.0 | 0.00 | 0.00 | 0.00 | 79 | 1013.6 |
| 20260506091438 | 45 | 165 | 0.0 | 0.0 | 0.00 | 0.00 | 0.00 | 79 | 1013.6 |
| 20260506085940 | 46 | 157 | 0.0 | 0.0 | 0.00 | 0.00 | 0.00 | 78 | 1013.6 |
| 20260506084439 | 46 | 159 | 0.0 | 1.0 | 0.00 | 0.00 | 0.00 | 77 | 1013.6 |
| 20260506082940 | 46 | 149 | 0.0 | 0.0 | 0.00 | 0.00 | 0.00 | 77 | 1013.5 |
| 20260506081440 | 47 | 148 | 0.0 | 0.0 | 0.00 | 0.00 | 0.00 | 76 | 1013.4 |
| 20260506072942 | 48 | 271 | 0.0 | 0.0 | 0.00 | 0.00 | 0.00 | 74 | 1013.2 |
| 20260506071437 | 49 | 271 | 0.0 | 1.0 | 0.00 | 0.00 | 0.00 | 72 | 1013.2 |
| 20260506061440 | 50 | 140 | 0.0 | 0.0 | 0.00 | 0.00 | 0.00 | 72 | 1012.7 |
| 20260506044437 | 55 | 154 | 0.0 | 0.0 | 0.00 | 0.00 | 0.00 | 63 | 1012.1 |
| 20260506042942 | 56 | 154 | 0.0 | 0.0 | 0.00 | 0.00 | 0.00 | 61 | 1012.0 |
| 20260506041439 | 57 | 154 | 0.0 | 0.0 | 0.00 | 0.00 | 0.00 | 59 | 1011.9 |
| 20260506035939 | 58 | 155 | 0.0 | 0.0 | 0.00 | 0.00 | 0.00 | 55 | 1011.7 |
| 20260506034439 | 59 | 155 | 0.0 | 0.0 | 0.00 | 0.00 | 0.00 | 52 | 1011.6 |
| 20260506032941 | 61 | 155 | 0.0 | 1.0 | 0.00 | 0.00 | 0.00 | 49 | 1011.5 |
| 20260506031439 | 63 | 154 | 0.0 | 0.0 | 0.00 | 0.00 | 0.00 | 44 | 1011.4 |
| 20260506025940 | 65 | 132 | 0.0 | 0.0 | 0.00 | 0.00 | 0.00 | 40 | 1011.3 |
| 20260506024439 | 68 | 132 | 0.0 | 0.0 | 0.00 | 0.00 | 0.00 | 37 | 1011.4 |
| 20260506022939 | 71 | 132 | 0.0 | 2.0 | 0.00 | 0.00 | 0.00 | 29 | 1011.3 |
| 20260506021441 | 73 | 121 | 1.0 | 3.0 | 0.00 | 0.00 | 0.00 | 27 | 1011.3 |
| 20260506015939 | 73 | 94 | 1.0 | 3.0 | 0.00 | 0.00 | 0.00 | 26 | 1011.3 |
| 20260506014442 | 74 | 132 | 1.0 | 2.0 | 0.00 | 0.00 | 0.00 | 25 | 1011.3 |
| 20260506012939 | 74 | 166 | 0.0 | 2.0 | 0.00 | 0.00 | 0.00 | 26 | 1011.3 |
| 20260506011440 | 74 | 36 | 0.0 | 4.0 | 0.00 | 0.00 | 0.00 | 26 | 1011.4 |
| 20260506005940 | 76 | 42 | 2.0 | 2.0 | 0.00 | 0.00 | 0.00 | 24 | 1011.4 |
| 20260506004439 | 75 | 134 | 1.0 | 3.0 | 0.00 | 0.00 | 0.00 | 25 | 1011.5 |
| 20260506002942 | 73 | 94 | 1.0 | 4.0 | 0.00 | 0.00 | 0.00 | 27 | 1011.5 |
| 20260506001440 | 74 | 65 | 1.0 | 6.0 | 0.00 | 0.00 | 0.00 | 26 | 1011.6 |
| 20260505235940 | 74 | 110 | 2.0 | 7.0 | 0.00 | 0.00 | 0.00 | 27 | 1011.9 |